createdAt,value
2023-04-14T00:00:50.921Z,5.00
2023-04-14T00:03:19.964Z,5.00
2023-04-14T00:05:48.283Z,5.00
2023-04-14T00:08:16.677Z,5.00
2023-04-14T00:10:44.874Z,5.00
2023-04-14T00:13:13.349Z,5.00
2023-04-14T00:15:42.750Z,5.00
2023-04-14T00:18:11.257Z,5.00
2023-04-14T00:20:39.523Z,5.25
2023-04-14T00:23:08.133Z,5.25
2023-04-14T00:25:36.517Z,5.25
2023-04-14T00:28:05.716Z,5.00
2023-04-14T00:30:33.916Z,5.00
2023-04-14T00:33:04.189Z,5.00
2023-04-14T00:35:33.063Z,5.00
2023-04-14T00:38:01.474Z,5.00
2023-04-14T00:40:31.508Z,5.00
2023-04-14T00:43:00.091Z,5.00
2023-04-14T00:45:29.105Z,5.00
2023-04-14T00:47:58.917Z,5.00
2023-04-14T00:50:27.094Z,5.00
2023-04-14T00:52:56.383Z,5.00
2023-04-14T00:55:24.557Z,5.00
2023-04-14T00:57:53.103Z,5.00
2023-04-14T01:00:21.892Z,5.00
2023-04-14T01:02:50.739Z,5.00
2023-04-14T01:05:20.718Z,5.00
2023-04-14T01:07:50.294Z,5.00
2023-04-14T01:10:18.641Z,5.75
2023-04-14T01:12:47.049Z,6.00
2023-04-14T01:15:17.853Z,5.00
2023-04-14T01:17:54.941Z,5.00
2023-04-14T01:20:29.074Z,5.00
2023-04-14T01:23:28.816Z,6.00
2023-04-14T01:26:29.828Z,5.75
2023-04-14T01:29:24.958Z,5.50
2023-04-14T01:32:06.549Z,5.00
2023-04-14T01:34:56.900Z,6.00
2023-04-14T01:37:34.561Z,5.75
2023-04-14T01:40:11.813Z,5.00
2023-04-14T01:42:45.206Z,5.75
2023-04-14T01:45:23.454Z,5.75
2023-04-14T01:47:52.713Z,5.00
2023-04-14T01:50:22.078Z,5.00
2023-04-14T01:52:54.380Z,5.00
2023-04-14T01:55:24.283Z,6.00
2023-04-14T01:57:52.935Z,6.00
2023-04-14T02:00:22.386Z,6.00
2023-04-14T02:02:52.574Z,6.00
2023-04-14T02:05:22.730Z,6.00
2023-04-14T02:07:52.968Z,5.50
2023-04-14T02:10:22.357Z,6.00
2023-04-14T02:12:53.588Z,5.00
2023-04-14T02:15:22.760Z,5.00
2023-04-14T02:17:52.987Z,5.75
2023-04-14T02:20:22.336Z,5.25
2023-04-14T02:22:50.480Z,6.00
2023-04-14T02:25:19.137Z,5.00
2023-04-14T02:27:55.099Z,5.00
2023-04-14T02:30:29.973Z,5.00
2023-04-14T02:33:03.640Z,6.00
2023-04-14T02:35:38.338Z,5.00
2023-04-14T02:38:10.730Z,5.33
2023-04-14T02:40:42.494Z,5.00
2023-04-14T02:43:33.519Z,5.50
2023-04-14T02:46:05.699Z,5.00
2023-04-14T02:48:35.549Z,6.00
2023-04-14T02:51:06.434Z,5.00
2023-04-14T02:53:34.873Z,5.00
2023-04-14T02:56:27.336Z,5.75
2023-04-14T02:58:58.630Z,5.00
2023-04-14T03:01:29.820Z,5.00
2023-04-14T03:03:58.200Z,5.00
2023-04-14T03:06:29.314Z,5.25
2023-04-14T03:09:00.441Z,5.00
2023-04-14T03:11:32.533Z,5.00
2023-04-14T03:14:01.203Z,5.00
2023-04-14T03:16:30.859Z,5.00
2023-04-14T03:19:00.985Z,5.00
2023-04-14T03:21:31.132Z,5.00
2023-04-14T03:24:00.986Z,5.00
2023-04-14T03:26:33.041Z,5.50
2023-04-14T03:29:05.198Z,5.50
2023-04-14T03:31:37.307Z,6.00
2023-04-14T03:34:07.555Z,5.00
2023-04-14T03:36:41.478Z,5.00
2023-04-14T03:39:11.924Z,5.00
2023-04-14T03:41:48.141Z,5.33
2023-04-14T03:44:19.449Z,5.00
2023-04-14T03:46:51.677Z,5.00
2023-04-14T03:49:21.864Z,5.00
2023-04-14T03:51:54.384Z,5.50
2023-04-14T03:54:24.711Z,6.00
2023-04-14T03:56:57.186Z,5.25
2023-04-14T03:59:28.634Z,5.00
2023-04-14T04:01:59.204Z,5.75
2023-04-14T04:04:27.976Z,5.75
2023-04-14T04:06:58.098Z,5.00
2023-04-14T04:09:30.044Z,5.00
2023-04-14T04:12:00.242Z,6.00
2023-04-14T04:14:30.455Z,5.00
2023-04-14T04:17:03.219Z,5.25
2023-04-14T04:19:34.043Z,5.00
2023-04-14T04:22:03.881Z,5.75
2023-04-14T04:24:38.296Z,6.00
2023-04-14T04:27:20.291Z,5.75
2023-04-14T04:29:56.762Z,5.33
2023-04-14T04:32:25.567Z,6.33
2023-04-14T04:34:55.418Z,5.75
2023-04-14T04:37:28.965Z,5.67
2023-04-14T04:39:58.541Z,5.75
2023-04-14T04:42:28.564Z,5.75
2023-04-14T04:44:58.180Z,6.00
2023-04-14T04:47:26.996Z,6.00
2023-04-14T04:49:55.250Z,5.75
2023-04-14T04:52:26.509Z,5.33
2023-04-14T04:54:54.902Z,5.00
2023-04-14T04:57:23.489Z,6.00
2023-04-14T04:59:51.994Z,5.50
2023-04-14T05:02:20.590Z,5.50
2023-04-14T05:04:49.073Z,5.75
2023-04-14T05:07:18.085Z,5.00
2023-04-14T05:09:46.533Z,5.67
2023-04-14T05:12:15.095Z,5.50
2023-04-14T05:14:43.308Z,5.50
2023-04-14T05:17:12.043Z,5.75
2023-04-14T05:19:40.135Z,6.00
2023-04-14T05:22:08.884Z,5.00
2023-04-14T05:24:37.123Z,5.00
2023-04-14T05:27:14.229Z,6.00
2023-04-14T05:29:43.274Z,5.75
2023-04-14T05:32:13.336Z,6.00
2023-04-14T05:34:42.137Z,5.75
2023-04-14T05:37:10.405Z,5.25
2023-04-14T05:39:38.954Z,6.00
2023-04-14T05:42:07.122Z,5.75
2023-04-14T05:44:36.237Z,5.50
2023-04-14T05:47:04.646Z,5.75
2023-04-14T05:49:33.338Z,6.00
2023-04-14T05:52:01.585Z,6.00
2023-04-14T05:54:30.112Z,6.00
2023-04-14T05:56:58.252Z,5.50
2023-04-14T05:59:27.484Z,6.25
2023-04-14T06:01:56.174Z,5.50
2023-04-14T06:04:25.072Z,6.00
2023-04-14T06:06:53.301Z,5.75
2023-04-14T06:09:21.934Z,5.75
2023-04-14T06:11:50.164Z,5.75
2023-04-14T06:14:18.825Z,6.25
2023-04-14T06:16:47.107Z,6.50
2023-04-14T06:19:15.638Z,6.00
2023-04-14T06:21:43.913Z,6.00
2023-04-14T06:24:12.352Z,6.25
2023-04-14T06:26:40.560Z,6.25
2023-04-14T06:29:09.354Z,6.25
2023-04-14T06:31:37.560Z,5.75
2023-04-14T06:34:06.177Z,7.00
2023-04-14T06:36:34.384Z,6.25
2023-04-14T06:39:03.593Z,6.00
2023-04-14T06:41:31.956Z,6.25
2023-04-14T06:44:00.453Z,6.25
2023-04-14T06:46:28.750Z,6.00
2023-04-14T06:48:57.246Z,7.00
2023-04-14T06:51:25.600Z,6.00
2023-04-14T06:53:54.183Z,6.33
2023-04-14T06:56:22.557Z,5.75
2023-04-14T06:58:51.515Z,5.75
2023-04-14T07:01:19.676Z,6.25
2023-04-14T07:03:48.383Z,6.25
2023-04-14T07:06:19.494Z,6.00
2023-04-14T07:08:48.402Z,5.75
2023-04-14T07:11:16.562Z,6.00
2023-04-14T07:13:45.030Z,7.00
2023-04-14T07:16:13.383Z,6.00
2023-04-14T07:18:41.873Z,6.00
2023-04-14T07:21:09.950Z,6.00
2023-04-14T07:23:39.350Z,6.00
2023-04-14T07:26:07.568Z,6.00
2023-04-14T07:28:36.035Z,6.00
2023-04-14T07:31:10.559Z,6.00
2023-04-14T07:33:40.016Z,6.25
2023-04-14T07:36:09.571Z,6.25
2023-04-14T07:38:38.525Z,6.00
2023-04-14T07:41:07.198Z,7.00
2023-04-14T07:43:36.003Z,6.00
2023-04-14T07:46:05.641Z,5.75
2023-04-14T07:48:35.829Z,6.00
2023-04-14T07:51:07.101Z,6.25
2023-04-14T07:53:40.698Z,6.00
2023-04-14T07:56:09.193Z,6.50
2023-04-14T07:58:38.017Z,6.00
2023-04-14T08:01:06.643Z,6.00
2023-04-14T08:03:37.758Z,5.75
2023-04-14T08:06:07.054Z,5.50
2023-04-14T08:08:35.886Z,6.00
2023-04-14T08:11:03.976Z,6.00
2023-04-14T08:13:32.782Z,5.75
2023-04-14T08:16:01.048Z,5.75
2023-04-14T08:18:29.562Z,5.75
2023-04-14T08:20:57.878Z,6.00
2023-04-14T08:23:26.777Z,5.50
2023-04-14T08:25:54.915Z,6.50
2023-04-14T08:28:23.309Z,6.00
2023-04-14T08:30:51.410Z,5.75
2023-04-14T08:33:20.021Z,6.00
2023-04-14T08:35:48.970Z,5.75
2023-04-14T08:38:29.188Z,5.75
2023-04-14T08:40:57.830Z,6.00
2023-04-14T08:43:26.764Z,5.50
2023-04-14T08:45:55.786Z,6.00
2023-04-14T08:48:30.760Z,6.00
2023-04-14T08:51:15.271Z,6.00
2023-04-14T08:53:45.527Z,6.00
2023-04-14T08:56:17.384Z,5.75
2023-04-14T08:58:47.587Z,5.00
2023-04-14T09:01:15.872Z,5.00
2023-04-14T09:03:45.083Z,5.00
2023-04-14T09:06:14.400Z,6.00
2023-04-14T09:08:43.394Z,5.00
2023-04-14T09:11:12.019Z,5.00
2023-04-14T09:13:41.141Z,5.00
2023-04-14T09:16:09.590Z,5.50
2023-04-14T09:18:38.132Z,5.00
2023-04-14T09:21:50.758Z,5.00
2023-04-14T09:23:57.244Z,5.00
2023-04-14T09:26:27.546Z,5.25
2023-04-14T09:28:55.990Z,5.00
2023-04-14T09:31:24.667Z,5.00
2023-04-14T09:33:53.585Z,5.00
2023-04-14T09:36:26.236Z,6.00
2023-04-14T09:38:55.008Z,5.00
2023-04-14T09:41:26.276Z,5.50
2023-04-14T09:43:54.758Z,5.75
2023-04-14T09:46:23.047Z,5.00
2023-04-14T09:48:56.426Z,5.25
2023-04-14T09:51:29.796Z,5.33
2023-04-14T09:54:05.551Z,5.00
2023-04-14T09:56:34.275Z,5.50
2023-04-14T09:59:04.114Z,5.00
2023-04-14T10:01:34.594Z,6.00
2023-04-14T10:04:03.960Z,5.25
2023-04-14T10:06:32.472Z,5.00
2023-04-14T10:09:02.017Z,5.25
2023-04-14T10:11:33.119Z,5.00
2023-04-14T10:14:04.273Z,5.50
2023-04-14T10:16:33.430Z,6.25
2023-04-14T10:19:03.236Z,5.00
2023-04-14T10:21:31.978Z,5.00
2023-04-14T10:24:00.935Z,5.00
2023-04-14T10:26:30.251Z,6.00
2023-04-14T10:28:59.423Z,5.00
2023-04-14T10:31:33.861Z,5.00
2023-04-14T10:34:13.371Z,5.25
2023-04-14T10:36:41.850Z,5.00
2023-04-14T10:39:11.653Z,5.00
2023-04-14T10:41:50.880Z,5.75
2023-04-14T10:44:22.660Z,5.00
2023-04-14T10:46:54.482Z,5.00
2023-04-14T10:49:26.248Z,5.00
2023-04-14T10:51:54.379Z,5.25
2023-04-14T10:54:22.829Z,5.00
2023-04-14T10:57:14.852Z,6.00
2023-04-14T10:59:43.570Z,5.00
2023-04-14T11:02:33.999Z,5.00
2023-04-14T11:05:10.751Z,5.25
2023-04-14T11:07:44.888Z,5.33
2023-04-14T11:10:33.736Z,5.00
2023-04-14T11:13:07.344Z,5.50
2023-04-14T11:15:58.172Z,5.00
2023-04-14T11:18:33.433Z,5.00
2023-04-14T11:21:16.267Z,5.00
2023-04-14T11:23:44.829Z,5.00
2023-04-14T11:26:16.418Z,6.00
2023-04-14T11:28:46.629Z,5.00
2023-04-14T11:31:17.670Z,5.25
2023-04-14T11:33:46.411Z,5.00
2023-04-14T11:36:14.845Z,5.25
2023-04-14T11:38:46.266Z,6.00
2023-04-14T11:41:15.845Z,5.00
2023-04-14T11:43:47.145Z,5.25
2023-04-14T11:46:16.683Z,5.00
2023-04-14T11:48:45.031Z,6.00
2023-04-14T11:51:13.899Z,5.50
2023-04-14T11:53:43.420Z,5.00
2023-04-14T11:56:13.356Z,5.50
2023-04-14T11:58:41.934Z,5.25
2023-04-14T12:01:14.802Z,5.00
2023-04-14T12:03:43.435Z,6.00
2023-04-14T12:06:12.114Z,6.00
2023-04-14T12:08:40.292Z,6.00
2023-04-14T12:11:15.255Z,5.00
2023-04-14T12:13:45.104Z,5.00
2023-04-14T12:16:15.312Z,5.00
2023-04-14T12:18:44.296Z,5.00
2023-04-14T12:21:17.765Z,5.00
2023-04-14T12:23:50.239Z,5.00
2023-04-14T12:26:20.197Z,5.00
2023-04-14T12:28:56.454Z,5.75
2023-04-14T12:31:30.192Z,5.00
2023-04-14T12:34:03.782Z,5.00
2023-04-14T12:36:48.764Z,5.00
2023-04-14T12:39:18.919Z,5.00
2023-04-14T12:41:48.029Z,5.00
2023-04-14T12:44:18.701Z,5.00
2023-04-14T12:46:50.153Z,5.00
2023-04-14T12:49:40.118Z,5.00
2023-04-14T12:52:08.859Z,5.67
2023-04-14T12:54:52.132Z,5.00
2023-04-14T12:57:22.224Z,5.00
2023-04-14T12:59:50.896Z,6.00
2023-04-14T13:02:19.933Z,5.00
2023-04-14T13:04:48.239Z,5.75
2023-04-14T13:07:17.058Z,5.00
2023-04-14T13:09:45.286Z,6.00
2023-04-14T13:12:13.795Z,5.00
2023-04-14T13:14:41.956Z,5.00
2023-04-14T13:17:10.577Z,5.00
2023-04-14T13:19:38.883Z,5.25
2023-04-14T13:22:07.455Z,5.00
2023-04-14T13:24:36.488Z,5.00
2023-04-14T13:27:05.221Z,5.00
2023-04-14T13:29:34.615Z,6.00
2023-04-14T13:32:03.178Z,5.00
2023-04-14T13:34:31.392Z,6.25
2023-04-14T13:37:00.005Z,5.00
2023-04-14T13:39:28.223Z,5.00
2023-04-14T13:41:56.754Z,5.00
2023-04-14T13:44:24.912Z,5.00
2023-04-14T13:46:56.391Z,5.00
2023-04-14T13:49:24.615Z,5.25
2023-04-14T13:51:53.382Z,5.00
2023-04-14T13:54:21.594Z,6.00
2023-04-14T13:56:50.005Z,6.00
2023-04-14T13:59:19.403Z,5.25
2023-04-14T14:01:48.069Z,5.00
2023-04-14T14:04:16.357Z,6.00
2023-04-14T14:06:45.921Z,6.00
2023-04-14T14:09:14.129Z,6.00
2023-04-14T14:11:44.744Z,6.00
2023-04-14T14:14:13.079Z,5.00
2023-04-14T14:16:41.860Z,5.00
2023-04-14T14:19:11.452Z,5.00
2023-04-14T14:21:41.968Z,5.50
2023-04-14T14:24:11.308Z,5.50
2023-04-14T14:26:39.728Z,5.50
2023-04-14T14:29:07.905Z,5.00
2023-04-14T14:31:36.659Z,5.00
2023-04-14T14:34:05.110Z,6.00
2023-04-14T14:36:33.577Z,5.50
2023-04-14T14:39:01.795Z,5.00
2023-04-14T14:41:30.380Z,5.00
2023-04-14T14:43:59.364Z,5.00
2023-04-14T14:46:31.417Z,5.00
2023-04-14T14:48:59.762Z,5.00
2023-04-14T14:51:28.389Z,5.25
2023-04-14T14:54:08.663Z,5.00
2023-04-14T14:56:41.574Z,5.00
2023-04-14T14:59:09.873Z,5.00
2023-04-14T15:01:38.759Z,5.00
2023-04-14T15:04:07.923Z,5.00
2023-04-14T15:06:37.539Z,5.00
2023-04-14T15:09:05.995Z,5.00
2023-04-14T15:11:34.663Z,5.00
2023-04-14T15:14:03.529Z,6.00
2023-04-14T15:16:32.456Z,5.00
2023-04-14T15:19:00.689Z,5.25
2023-04-14T15:21:29.221Z,5.00
2023-04-14T15:23:57.419Z,5.25
2023-04-14T15:26:26.153Z,5.00
2023-04-14T15:28:55.470Z,5.00
2023-04-14T15:31:24.121Z,5.00
2023-04-14T15:33:52.421Z,5.25
2023-04-14T15:36:21.953Z,5.00
2023-04-14T15:38:51.200Z,5.00
2023-04-14T15:41:19.984Z,5.00
2023-04-14T15:43:51.387Z,5.75
2023-04-14T15:46:20.388Z,5.00
2023-04-14T15:48:48.647Z,5.00
2023-04-14T15:51:18.797Z,5.00
2023-04-14T15:53:46.925Z,5.00
2023-04-14T15:56:17.594Z,5.00
2023-04-14T15:58:45.703Z,5.00
2023-04-14T16:01:14.252Z,5.00
2023-04-14T16:03:42.803Z,5.00
2023-04-14T16:06:11.699Z,5.00
2023-04-14T16:08:39.959Z,5.00
2023-04-14T16:11:14.331Z,5.67
2023-04-14T16:13:46.030Z,5.00
2023-04-14T16:16:15.833Z,5.00
2023-04-14T16:18:44.014Z,5.00
2023-04-14T16:21:12.678Z,5.25
2023-04-14T16:23:41.631Z,5.00
2023-04-14T16:26:10.275Z,5.25
2023-04-14T16:28:38.539Z,5.33
2023-04-14T16:31:08.456Z,6.00
2023-04-14T16:33:36.708Z,5.75
2023-04-14T16:36:09.108Z,5.75
2023-04-14T16:38:37.257Z,5.75
2023-04-14T16:41:05.981Z,5.75
2023-04-14T16:43:34.158Z,6.00
2023-04-14T16:46:04.153Z,6.00
2023-04-14T16:48:32.884Z,5.75
2023-04-14T16:51:05.690Z,5.25
2023-04-14T16:53:34.885Z,5.00
2023-04-14T16:56:07.707Z,6.00
2023-04-14T16:58:37.276Z,5.25
2023-04-14T17:01:06.960Z,5.25
2023-04-14T17:03:35.827Z,5.25
2023-04-14T17:06:05.465Z,5.00
2023-04-14T17:08:34.533Z,5.00
2023-04-14T17:11:03.645Z,5.00
2023-04-14T17:13:31.782Z,5.00
2023-04-14T17:16:08.297Z,5.00
2023-04-14T17:18:38.403Z,5.00
2023-04-14T17:21:07.164Z,5.00
2023-04-14T17:23:37.333Z,5.25
2023-04-14T17:26:06.572Z,5.00
2023-04-14T17:28:35.874Z,5.00
2023-04-14T17:31:13.553Z,5.00
2023-04-14T17:33:43.197Z,5.00
2023-04-14T17:36:15.078Z,5.00
2023-04-14T17:38:43.679Z,5.00
2023-04-14T17:41:13.065Z,5.00
2023-04-14T17:43:42.013Z,5.00
2023-04-14T17:46:11.836Z,5.25
2023-04-14T17:48:40.606Z,5.00
2023-04-14T17:51:09.306Z,5.00
2023-04-14T17:53:37.729Z,5.00
2023-04-14T17:56:08.305Z,5.25
2023-04-14T17:58:36.830Z,5.00
2023-04-14T18:01:05.341Z,5.00
2023-04-14T18:03:33.663Z,5.00
2023-04-14T18:06:02.614Z,5.00
2023-04-14T18:08:31.233Z,5.67
2023-04-14T18:10:59.715Z,5.25
2023-04-14T18:13:28.915Z,5.00
2023-04-14T18:15:57.775Z,5.00
2023-04-14T18:18:26.177Z,5.00
2023-04-14T18:20:56.546Z,5.00
2023-04-14T18:23:25.345Z,5.00
2023-04-14T18:28:36.955Z,5.25
2023-04-14T18:31:07.263Z,5.00
2023-04-14T18:33:36.853Z,6.25
2023-04-14T18:36:08.790Z,6.33
2023-04-14T18:38:37.556Z,6.50
2023-04-14T18:41:07.526Z,9.00
2023-04-14T18:43:35.867Z,8.75
2023-04-14T18:46:04.563Z,9.00
2023-04-14T18:48:34.306Z,9.33
2023-04-14T18:51:08.324Z,9.67
2023-04-14T18:53:36.886Z,10.00
2023-04-14T18:56:05.605Z,10.75
2023-04-14T18:58:33.803Z,10.75
2023-04-14T19:01:04.044Z,10.75
2023-04-14T19:03:32.443Z,11.50
2023-04-14T19:06:01.855Z,11.25
2023-04-14T19:08:30.159Z,12.00
2023-04-14T19:10:59.395Z,12.25
2023-04-14T19:13:28.025Z,11.67
2023-04-14T19:16:08.624Z,12.25
2023-04-14T19:18:37.000Z,11.00
2023-04-14T19:21:09.401Z,12.00
2023-04-14T19:23:38.396Z,12.25
2023-04-14T19:26:08.613Z,11.25
2023-04-14T19:28:39.968Z,11.00
2023-04-14T19:31:08.917Z,11.50
2023-04-14T19:33:38.821Z,10.75
2023-04-14T19:36:17.628Z,11.00
2023-04-14T19:38:45.920Z,12.00
2023-04-14T19:41:14.962Z,12.00
2023-04-14T19:43:43.327Z,12.00
2023-04-14T19:46:13.477Z,11.75
2023-04-14T19:48:41.821Z,11.00
2023-04-14T19:51:11.700Z,11.67
2023-04-14T19:53:40.053Z,10.00
2023-04-14T19:56:08.957Z,11.00
2023-04-14T19:58:37.173Z,10.25
2023-04-14T20:01:05.979Z,10.75
2023-04-14T20:03:34.842Z,12.00
2023-04-14T20:06:04.470Z,11.67
2023-04-14T20:08:32.640Z,11.75
2023-04-14T20:11:01.773Z,11.00
2023-04-14T20:13:32.303Z,11.00
2023-04-14T20:16:01.814Z,11.75
2023-04-14T20:18:30.214Z,10.25
2023-04-14T20:20:59.390Z,10.75
2023-04-14T20:23:28.087Z,10.33
2023-04-14T20:25:56.974Z,10.50
2023-04-14T20:28:26.268Z,11.00
2023-04-14T20:30:55.994Z,10.67
2023-04-14T20:33:24.696Z,9.25
2023-04-14T20:35:54.360Z,10.00
2023-04-14T20:38:23.187Z,10.75
2023-04-14T20:40:51.981Z,11.25
2023-04-14T20:43:20.629Z,11.50
2023-04-14T20:45:50.227Z,12.67
2023-04-14T20:48:18.646Z,15.00
2023-04-14T20:50:49.857Z,14.25
2023-04-14T20:53:18.646Z,14.25
2023-04-14T20:55:47.194Z,15.75
2023-04-14T20:58:15.358Z,15.75
2023-04-14T21:00:43.857Z,16.50
2023-04-14T21:03:12.351Z,16.00
2023-04-14T21:05:40.908Z,16.50
2023-04-14T21:08:09.827Z,16.75
2023-04-14T21:11:14.984Z,18.00
2023-04-14T21:15:27.062Z,15.75
2023-04-14T21:16:15.933Z,17.50
2023-04-14T21:18:44.042Z,16.75
2023-04-14T21:21:12.557Z,16.50
2023-04-14T21:23:41.279Z,16.50
2023-04-14T21:26:12.038Z,16.75
2023-04-14T21:28:41.765Z,15.33
2023-04-14T21:31:11.476Z,17.75
2023-04-14T21:33:42.059Z,16.00
2023-04-14T21:36:11.015Z,16.25
2023-04-14T21:38:39.527Z,15.50
2023-04-14T21:41:08.222Z,15.00
2023-04-14T21:43:37.605Z,15.00
2023-04-14T21:46:06.318Z,16.00
2023-04-14T21:48:34.532Z,15.00
2023-04-14T21:51:03.367Z,14.25
2023-04-14T21:53:32.520Z,16.00
2023-04-14T21:56:09.786Z,15.00
2023-04-14T21:58:40.439Z,12.33
2023-04-14T22:01:10.511Z,14.25
2023-04-14T22:03:40.890Z,13.50
2023-04-14T22:06:12.500Z,14.00
2023-04-14T22:08:41.137Z,13.33
2023-04-14T22:11:09.747Z,13.25
2023-04-14T22:13:38.167Z,13.00
2023-04-14T22:16:07.133Z,12.75
2023-04-14T22:18:37.296Z,11.33
2023-04-14T22:21:10.006Z,11.00
2023-04-14T22:23:40.264Z,12.50
2023-04-14T22:26:09.277Z,10.33
2023-04-14T22:28:37.919Z,11.00
2023-04-14T22:31:06.777Z,11.00
2023-04-14T22:33:36.056Z,12.50
2023-04-14T22:36:06.345Z,11.50
2023-04-14T22:38:34.576Z,11.00
2023-04-14T22:41:03.158Z,11.33
2023-04-14T22:43:31.400Z,10.00
2023-04-14T22:45:59.909Z,9.67
2023-04-14T22:48:28.000Z,10.50
2023-04-14T22:50:56.806Z,9.00
2023-04-14T22:53:24.844Z,11.00
2023-04-14T22:55:53.405Z,10.25
2023-04-14T22:58:22.118Z,10.50
2023-04-14T23:00:50.494Z,10.50
2023-04-14T23:03:18.794Z,9.75
2023-04-14T23:05:47.529Z,10.75
2023-04-14T23:08:15.942Z,10.25
2023-04-14T23:10:44.602Z,9.75
2023-04-14T23:13:12.670Z,10.00
2023-04-14T23:15:41.475Z,9.00
2023-04-14T23:18:09.695Z,10.00
2023-04-14T23:20:38.957Z,10.75
2023-04-14T23:23:12.368Z,9.50
2023-04-14T23:25:41.160Z,9.33
2023-04-14T23:28:10.480Z,9.00
2023-04-14T23:30:38.952Z,8.75
2023-04-14T23:33:07.234Z,9.00
2023-04-14T23:35:36.481Z,9.00
2023-04-14T23:38:04.744Z,8.25
2023-04-14T23:40:34.383Z,8.33
2023-04-14T23:43:03.597Z,8.00
2023-04-14T23:45:37.442Z,8.00
2023-04-14T23:48:06.802Z,8.00
2023-04-14T23:50:59.077Z,8.75
2023-04-14T23:53:25.436Z,7.75
2023-04-14T23:55:54.056Z,7.00
2023-04-14T23:58:26.773Z,7.75
